Time;durP1;ratioP1;P1;durP2;ratioP2;P2;SDS_P1;SDS_P2;PMS_P1;PMS_P2;Temp;Humidity;BMP_temperature;BMP_pressure;BME280_temperature;BME280_humidity;BME280_pressure;Samples;Min_cycle;Max_cycle;Signal;HPM_P1;HPM_P2
2021/11/06 00:01:43;;;;;;;14.63;9.80;;;;;;;5.76;86.28;101540.25;8719213;33;20751;-74
2021/11/06 00:06:46;;;;;;;15.77;9.95;;;;;;;5.80;86.02;101527.66;8693670;33;20230;-75
2021/11/06 00:11:49;;;;;;;16.88;9.77;;;;;;;5.62;85.96;101534.63;8718171;33;20183;-75
2021/11/06 00:16:54;;;;;;;15.77;10.20;;;;;;;5.70;85.79;101527.16;8717825;33;20183;-74
2021/11/06 00:21:57;;;;;;;17.13;9.27;;;;;;;5.67;85.83;101533.47;8718354;33;20830;-74
2021/11/06 00:27:00;;;;;;;19.20;9.85;;;;;;;5.80;85.25;101536.50;8717913;33;20841;-75
2021/11/06 00:32:07;;;;;;;18.52;9.75;;;;;;;5.64;85.71;101532.75;8717859;33;20179;-74
2021/11/06 00:37:10;;;;;;;16.35;9.73;;;;;;;5.59;85.71;101534.75;8717008;33;20225;-75
2021/11/06 00:42:13;;;;;;;16.17;8.73;;;;;;;5.66;84.85;101531.75;8717720;33;20183;-75
2021/11/06 00:47:17;;;;;;;15.63;8.55;;;;;;;5.56;85.83;101534.88;8717268;33;21500;-74
2021/11/06 00:52:20;;;;;;;14.32;8.13;;;;;;;5.66;84.77;101537.09;8718043;33;20209;-74
2021/11/06 00:57:23;;;;;;;11.85;7.93;;;;;;;5.56;85.17;101529.53;8717084;33;20125;-75
2021/11/06 01:02:28;;;;;;;22.95;8.10;;;;;;;5.57;84.99;101539.25;8717159;33;20147;-74
2021/11/06 01:07:31;;;;;;;16.00;8.40;;;;;;;5.75;83.87;101540.31;8692172;33;20194;-74
2021/11/06 01:12:34;;;;;;;14.07;7.85;;;;;;;5.73;84.00;101543.03;8717025;33;20210;-74
2021/11/06 01:17:38;;;;;;;14.82;8.90;;;;;;;5.70;84.05;101556.47;8691258;33;20180;-74
2021/11/06 01:22:41;;;;;;;16.05;8.65;;;;;;;5.82;83.06;101541.78;8717062;33;20156;-74
2021/11/06 01:27:45;;;;;;;13.23;8.18;;;;;;;5.72;83.36;101558.16;8716157;33;20176;-74
2021/11/06 01:32:50;;;;;;;15.30;8.32;;;;;;;5.58;82.99;101554.34;8716786;33;20864;-75
2021/11/06 01:37:53;;;;;;;12.80;8.05;;;;;;;5.59;83.09;101561.41;8724124;33;20292;-73
2021/11/06 01:42:56;;;;;;;13.32;8.48;;;;;;;5.79;82.33;101563.22;8731700;33;20292;-75
2021/11/06 01:48:01;;;;;;;16.63;8.77;;;;;;;5.59;82.70;101559.59;8721054;33;20214;-75
2021/11/06 01:53:04;;;;;;;16.20;9.10;;;;;;;5.54;82.78;101548.28;8715309;33;20217;-74
2021/11/06 01:58:07;;;;;;;12.15;9.15;;;;;;;5.52;82.76;101546.63;8691088;33;20501;-75
2021/11/06 02:03:13;;;;;;;18.20;10.13;;;;;;;5.47;82.88;101547.66;8691728;33;20529;-74
2021/11/06 02:08:17;;;;;;;15.30;9.98;;;;;;;5.27;83.28;101532.50;8691176;33;20152;-74
2021/11/06 02:13:21;;;;;;;16.58;10.68;;;;;;;5.46;82.78;101539.75;8715220;33;20875;-74
2021/11/06 02:18:25;;;;;;;13.95;8.63;;;;;;;5.30;82.91;101544.81;8715709;33;20179;-74
2021/11/06 02:23:34;;;;;;;14.63;9.48;;;;;;;5.39;82.36;101533.78;8715340;33;20552;-75
2021/11/06 02:28:38;;;;;;;12.15;9.23;;;;;;;5.27;82.72;101537.81;8714956;33;20465;-75
2021/11/06 02:33:42;;;;;;;13.35;7.97;;;;;;;5.24;82.24;101529.94;8714802;33;20542;-74
2021/11/06 02:38:47;;;;;;;12.55;7.88;;;;;;;5.21;82.26;101539.84;8690040;33;20237;-74
2021/11/06 02:43:50;;;;;;;16.30;9.82;;;;;;;5.34;81.70;101540.22;8714285;33;20939;-75
2021/11/06 02:48:53;;;;;;;15.93;9.73;;;;;;;5.06;82.53;101550.19;8690538;33;20224;-75
2021/11/06 02:53:58;;;;;;;16.35;10.70;;;;;;;5.16;82.19;101544.50;8714328;33;20177;-75
2021/11/06 02:59:01;;;;;;;16.98;10.60;;;;;;;5.19;81.93;101544.38;8713881;33;20530;-74
2021/11/06 03:04:09;;;;;;;14.75;9.63;;;;;;;4.91;82.70;101558.75;8736867;33;20527;-74
2021/11/06 03:09:14;;;;;;;14.55;8.68;;;;;;;4.90;82.73;101538.38;8714161;33;20184;-74
2021/11/06 03:14:17;;;;;;;18.83;11.70;;;;;;;5.13;81.88;101549.94;8713706;33;20264;-75
2021/11/06 03:19:20;;;;;;;18.25;10.98;;;;;;;4.95;82.26;101547.03;8713475;33;20237;-74
2021/11/06 03:24:25;;;;;;;15.15;9.30;;;;;;;4.66;83.82;101553.47;8713545;33;20226;-74
2021/11/06 03:29:28;;;;;;;17.23;10.13;;;;;;;4.71;83.72;101555.97;8713754;33;20188;-74
2021/11/06 03:34:31;;;;;;;19.05;12.30;;;;;;;4.89;82.83;101554.41;8715149;33;20190;-74
2021/11/06 03:39:35;;;;;;;17.10;10.88;;;;;;;4.66;83.93;101560.59;8713431;33;20191;-75
2021/11/06 03:44:41;;;;;;;14.50;9.45;;;;;;;4.57;84.02;101568.00;8688557;33;20176;-74
2021/11/06 03:49:44;;;;;;;20.90;13.63;;;;;;;4.55;83.68;101571.66;8713703;33;20121;-74
2021/11/06 03:54:49;;;;;;;18.55;13.85;;;;;;;4.66;83.43;101563.25;8713082;33;20136;-74
2021/11/06 03:59:52;;;;;;;17.55;12.57;;;;;;;4.74;83.33;101558.53;8713245;33;20238;-74
2021/11/06 04:04:55;;;;;;;14.43;10.68;;;;;;;4.79;82.86;101561.88;8712961;33;20222;-75
2021/11/06 04:09:59;;;;;;;19.95;13.43;;;;;;;4.78;83.00;101576.13;8713126;33;20668;-74
2021/11/06 04:15:02;;;;;;;19.77;12.93;;;;;;;5.00;82.26;101571.75;8716531;33;20266;-74
2021/11/06 04:20:08;;;;;;;19.50;13.05;;;;;;;5.19;81.26;101574.56;8718140;33;20518;-74
2021/11/06 04:25:13;;;;;;;19.50;12.60;;;;;;;5.13;81.80;101577.47;8717869;33;21090;-75
2021/11/06 04:30:16;;;;;;;20.67;12.10;;;;;;;5.03;81.87;101579.59;8692844;33;21611;-75
2021/11/06 04:35:19;;;;;;;20.98;12.15;;;;;;;5.25;81.04;101578.78;8717106;33;20187;-75
2021/11/06 04:40:23;;;;;;;18.33;12.93;;;;;;;5.12;81.65;101578.38;8717218;33;20214;-75
2021/11/06 04:45:26;;;;;;;21.33;11.65;;;;;;;5.05;81.43;101588.41;8716558;33;21137;-74
2021/11/06 04:50:29;;;;;;;19.60;12.55;;;;;;;5.16;81.53;101580.00;8717342;33;20197;-75
2021/11/06 04:55:34;;;;;;;20.65;11.85;;;;;;;5.37;80.71;101574.72;8717077;33;20656;-75
2021/11/06 05:00:37;;;;;;;21.95;12.65;;;;;;;5.27;80.50;101566.25;8717304;33;20863;-75
2021/11/06 05:05:40;;;;;;;21.15;12.40;;;;;;;5.36;80.39;101562.34;8716787;33;20136;-74
2021/11/06 05:10:45;;;;;;;25.35;13.07;;;;;;;5.44;80.04;101555.78;8692396;33;20263;-74
2021/11/06 05:15:48;;;;;;;22.20;10.52;;;;;;;5.37;79.98;101554.28;8716191;33;20226;-76
2021/11/06 05:20:51;;;;;;;23.40;13.02;;;;;;;5.34;80.34;101569.53;8716126;33;20183;-74
2021/11/06 05:25:55;;;;;;;25.27;12.75;;;;;;;5.39;79.92;101578.22;8715829;33;20707;-74
2021/11/06 05:30:58;;;;;;;25.27;13.30;;;;;;;5.37;79.68;101569.41;8691445;33;20152;-77
2021/11/06 05:36:01;;;;;;;20.50;11.98;;;;;;;5.09;80.39;101582.97;8715965;33;20183;-75
2021/11/06 05:41:06;;;;;;;21.60;12.00;;;;;;;5.07;80.70;101588.34;8715628;33;20656;-74
2021/11/06 05:46:09;;;;;;;28.45;14.02;;;;;;;5.12;80.80;101582.84;8715090;33;20198;-75
2021/11/06 05:51:13;;;;;;;21.48;12.45;;;;;;;5.12;80.53;101583.72;8717196;33;20629;-74
2021/11/06 05:56:19;;;;;;;21.88;12.50;;;;;;;5.23;79.85;101584.16;8715452;33;20232;-73
2021/11/06 06:01:22;;;;;;;26.42;13.93;;;;;;;5.19;80.06;101579.88;8715448;33;20659;-74
2021/11/06 06:06:26;;;;;;;24.50;11.68;;;;;;;5.23;80.50;101572.63;8716104;33;20438;-74
2021/11/06 06:11:30;;;;;;;22.20;11.70;;;;;;;4.91;81.85;101584.50;8715830;33;20290;-74
2021/11/06 06:16:33;;;;;;;20.70;10.30;;;;;;;5.13;81.05;101589.91;8691962;33;20559;-73
2021/11/06 06:21:37;;;;;;;24.25;12.75;;;;;;;5.25;80.95;101586.75;8715464;33;20270;-74
2021/11/06 06:26:41;;;;;;;26.30;12.32;;;;;;;5.31;80.11;101582.97;8714793;33;20793;-73
2021/11/06 06:31:44;;;;;;;24.33;11.73;;;;;;;5.37;79.61;101590.72;8690999;33;20184;-74
2021/11/06 06:36:47;;;;;;;23.05;13.23;;;;;;;5.44;79.32;101598.41;8716052;33;20191;-74
2021/11/06 06:41:52;;;;;;;23.50;11.57;;;;;;;5.26;79.54;101597.34;8691239;33;20152;-74
2021/11/06 06:46:56;;;;;;;21.70;12.10;;;;;;;5.45;78.90;101612.59;8716016;33;20278;-74
2021/11/06 06:51:59;;;;;;;17.90;9.85;;;;;;;5.40;78.61;101607.47;8717068;33;20202;-75
2021/11/06 06:57:04;;;;;;;21.27;12.90;;;;;;;5.51;78.24;101601.69;8715728;33;20175;-74
2021/11/06 07:02:08;;;;;;;25.17;13.05;;;;;;;5.37;78.92;101599.59;8715651;33;21819;-74
2021/11/06 07:07:11;;;;;;;23.13;11.02;;;;;;;5.48;78.17;101599.16;8715913;33;20230;-74
2021/11/06 07:12:16;;;;;;;24.33;11.70;;;;;;;5.47;77.65;101608.09;8715723;33;20999;-75
2021/11/06 07:17:19;;;;;;;21.55;10.55;;;;;;;5.45;77.54;101607.28;8691283;33;20211;-74
2021/11/06 07:22:22;;;;;;;11.48;6.38;;;;;;;5.25;77.18;101627.59;8722023;33;20151;-74
2021/11/06 07:27:26;;;;;;;16.30;9.02;;;;;;;5.32;77.56;101606.03;8745000;33;20221;-74
2021/11/06 07:32:32;;;;;;;19.98;9.18;;;;;;;5.45;76.74;101618.81;8718723;33;20278;-74
2021/11/06 07:37:37;;;;;;;19.75;8.77;;;;;;;5.50;76.61;101614.16;8716568;33;20238;-74
2021/11/06 07:42:45;;;;;;;19.58;9.50;;;;;;;5.59;76.21;101612.91;8690405;33;21015;-74
2021/11/06 07:47:48;;;;;;;17.40;9.32;;;;;;;5.77;75.41;101610.44;8716680;33;20507;-74
2021/11/06 07:52:52;;;;;;;18.15;7.60;;;;;;;5.64;75.43;101607.41;8720044;33;20676;-74
2021/11/06 07:57:56;;;;;;;16.55;8.85;;;;;;;5.89;74.91;101613.44;8718797;33;20187;-74
2021/11/06 08:03:00;;;;;;;12.65;6.32;;;;;;;5.56;75.66;101617.50;8719531;33;20340;-74
2021/11/06 08:08:04;;;;;;;15.57;7.63;;;;;;;5.75;75.24;101620.28;8720219;33;20768;-74
2021/11/06 08:13:10;;;;;;;14.68;7.95;;;;;;;5.99;74.45;101611.28;8695686;33;20703;-74
2021/11/06 08:18:13;;;;;;;17.40;8.90;;;;;;;5.84;74.65;101606.56;8683476;33;20282;-77
2021/11/06 08:23:16;;;;;;;13.27;7.50;;;;;;;5.83;74.39;101599.50;8720700;33;20216;-74
2021/11/06 08:28:21;;;;;;;13.30;7.18;;;;;;;5.81;74.42;101590.69;8719878;33;20180;-74
2021/11/06 08:33:25;;;;;;;11.98;7.13;;;;;;;5.81;74.28;101596.03;8720557;33;20256;-73
2021/11/06 08:38:28;;;;;;;14.80;8.32;;;;;;;6.01;73.36;101596.06;8720205;33;20183;-74
2021/11/06 08:43:34;;;;;;;10.70;6.20;;;;;;;5.89;73.25;101596.56;8694230;33;20299;-75
2021/11/06 08:48:37;;;;;;;12.32;6.70;;;;;;;6.07;73.19;101594.94;8719160;33;20639;-74
2021/11/06 08:53:40;;;;;;;16.67;7.63;;;;;;;5.98;73.08;101584.66;8720619;33;20420;-74
2021/11/06 08:58:45;;;;;;;13.30;6.53;;;;;;;5.96;73.52;101603.41;8718642;33;20212;-73
2021/11/06 09:03:49;;;;;;;14.48;6.22;;;;;;;5.78;74.18;101612.16;8718544;33;20183;-74
2021/11/06 09:08:52;;;;;;;13.27;6.85;;;;;;;5.99;73.83;101597.06;8718816;33;20276;-73
2021/11/06 09:13:57;;;;;;;7.88;5.07;;;;;;;5.82;74.53;101606.66;8694766;33;20692;-74
2021/11/06 09:19:01;;;;;;;11.10;6.57;;;;;;;5.85;74.90;101601.19;8718715;33;20171;-74
2021/11/06 09:24:05;;;;;;;13.70;7.00;;;;;;;5.88;74.99;101606.38;8717851;33;20979;-74
2021/11/06 09:29:11;;;;;;;8.35;5.22;;;;;;;5.53;76.27;101617.63;8717391;33;21051;-74
2021/11/06 09:34:14;;;;;;;19.10;6.78;;;;;;;5.67;76.76;101610.81;8717650;33;20194;-74
2021/11/06 09:39:17;;;;;;;13.35;7.38;;;;;;;5.84;77.15;101612.78;8716928;33;20217;-76
2021/11/06 09:44:26;;;;;;;10.80;4.28;;;;;;;5.43;78.28;101642.00;8716973;33;20158;-74
2021/11/06 09:49:29;;;;;;;13.27;7.22;;;;;;;5.56;78.09;101621.03;8717405;33;20233;-73
2021/11/06 09:54:33;;;;;;;12.70;5.78;;;;;;;5.45;78.50;101613.47;8716720;33;20136;-73
2021/11/06 09:59:38;;;;;;;13.32;6.97;;;;;;;5.78;77.28;101607.69;8693663;33;20252;-74
2021/11/06 10:04:41;;;;;;;14.20;6.80;;;;;;;5.81;76.79;101604.91;8717595;33;20210;-74
2021/11/06 10:10:00;;;;;;;14.73;7.38;;;;;;;5.93;77.22;101604.41;8717719;33;20241;-73
2021/11/06 10:15:08;;;;;;;14.98;7.50;;;;;;;6.10;76.31;101610.81;8680989;33;20266;-73
2021/11/06 10:20:25;;;;;;;12.90;7.82;;;;;;;6.17;75.58;101597.16;8691724;33;20953;-75
2021/11/06 10:25:28;;;;;;;14.77;8.02;;;;;;;6.36;74.95;101589.22;8716258;33;20917;-75
2021/11/06 10:30:36;;;;;;;16.77;7.82;;;;;;;6.77;73.63;101586.44;8716149;33;20148;-75
2021/11/06 10:35:40;;;;;;;16.20;7.28;;;;;;;6.71;73.25;101572.53;8715994;33;20187;-75
2021/11/06 10:40:47;;;;;;;11.32;7.35;;;;;;;6.75;72.59;101569.66;8715209;33;20757;-75
2021/11/06 10:45:54;;;;;;;12.20;6.38;;;;;;;6.68;73.31;101572.66;8714941;33;20240;-74
2021/11/06 10:51:02;;;;;;;14.48;8.00;;;;;;;7.04;72.23;101570.97;8715256;33;20148;-74
2021/11/06 10:56:20;;;;;;;16.15;7.38;;;;;;;6.85;71.66;101562.06;8690121;33;20198;-76
2021/11/06 11:01:29;;;;;;;15.00;7.43;;;;;;;7.28;71.08;101566.25;8715187;33;20533;-76
2021/11/06 11:06:40;;;;;;;16.92;7.85;;;;;;;7.37;70.29;101537.34;8714818;33;21474;-75
2021/11/06 11:11:43;;;;;;;17.35;8.25;;;;;;;7.66;69.85;101546.59;8714787;33;20176;-75
2021/11/06 11:16:57;;;;;;;15.93;7.72;;;;;;;7.68;69.72;101532.22;8714647;33;20209;-75
2021/11/06 11:22:01;;;;;;;13.52;6.90;;;;;;;7.72;69.90;101535.59;8715920;33;20137;-75
2021/11/06 11:27:04;;;;;;;12.00;6.43;;;;;;;7.60;69.84;101531.72;8720066;33;20189;-77
2021/11/06 11:32:11;;;;;;;12.05;6.55;;;;;;;7.63;69.98;101512.00;8720602;33;21629;-75
2021/11/06 11:37:15;;;;;;;14.32;6.65;;;;;;;7.53;69.80;101502.69;8694585;33;20183;-75
2021/11/06 11:42:39;;;;;;;9.77;5.93;;;;;;;7.70;69.17;101503.56;8719367;33;20177;-75
2021/11/06 11:47:52;;;;;;;11.68;5.78;;;;;;;7.88;68.71;101500.91;8719121;33;20477;-75
2021/11/06 11:52:55;;;;;;;10.93;6.22;;;;;;;7.99;69.07;101495.00;8718791;33;20245;-76
2021/11/06 11:58:11;;;;;;;11.75;5.78;;;;;;;8.15;68.84;101486.06;8718774;33;20637;-77
2021/11/06 12:03:29;;;;;;;12.55;6.55;;;;;;;8.24;69.07;101486.50;8718409;33;20597;-75
2021/11/06 12:08:34;;;;;;;9.05;6.00;;;;;;;8.03;69.62;101488.50;8719262;33;20187;-75
2021/11/06 12:13:40;;;;;;;9.30;6.05;;;;;;;8.21;68.44;101479.50;8718635;33;20156;-75
2021/11/06 12:18:55;;;;;;;9.10;5.63;;;;;;;8.19;68.75;101468.00;8718896;33;21050;-76
2021/11/06 12:24:20;;;;;;;8.48;5.22;;;;;;;8.29;68.51;101469.25;8718578;33;20204;-75
2021/11/06 12:29:33;;;;;;;11.13;5.60;;;;;;;8.47;68.10;101445.97;8718810;33;20220;-75
2021/11/06 12:34:53;;;;;;;10.52;5.25;;;;;;;8.46;67.66;101443.41;8717120;33;20158;-74
2021/11/06 12:39:56;;;;;;;8.73;4.60;;;;;;;8.53;68.02;101440.31;8717998;33;21062;-75
2021/11/06 12:45:05;;;;;;;6.32;4.50;;;;;;;8.60;67.46;101425.59;8715395;33;20152;-75
2021/11/06 12:50:17;;;;;;;7.70;5.28;;;;;;;8.66;67.61;101423.53;8717448;33;20163;-75
2021/11/06 12:55:21;;;;;;;6.18;3.75;;;;;;;8.49;67.52;101411.09;8716922;33;20232;-76
2021/11/06 13:00:29;;;;;;;7.68;3.50;;;;;;;8.33;67.79;101413.72;8716881;33;20174;-76
2021/11/06 13:05:46;;;;;;;9.77;5.03;;;;;;;8.42;67.71;101415.91;8718330;33;20450;-75
2021/11/06 13:10:50;;;;;;;5.07;3.47;;;;;;;8.34;68.04;101404.75;8753271;33;20242;-75
2021/11/06 13:15:55;;;;;;;8.23;4.22;;;;;;;8.30;67.79;101397.84;8744827;33;20676;-75
2021/11/06 13:21:02;;;;;;;7.68;4.20;;;;;;;8.48;67.57;101383.44;8718471;33;20203;-75
2021/11/06 13:26:06;;;;;;;7.78;3.97;;;;;;;8.38;67.94;101382.19;8713885;33;20251;-75
2021/11/06 13:31:11;;;;;;;6.35;3.70;;;;;;;8.38;67.75;101374.16;8692498;33;20124;-73
2021/11/06 13:36:18;;;;;;;5.28;3.67;;;;;;;8.23;68.07;101373.22;8692306;33;20148;-75
2021/11/06 13:41:22;;;;;;;7.47;3.80;;;;;;;8.33;67.88;101362.84;8716876;33;20524;-73
2021/11/06 13:46:33;;;;;;;8.35;3.90;;;;;;;8.24;68.26;101355.34;8716681;33;20132;-75
2021/11/06 13:51:45;;;;;;;4.57;3.15;;;;;;;8.33;67.34;101353.00;8716382;33;20888;-73
2021/11/06 13:57:06;;;;;;;6.82;3.53;;;;;;;8.48;67.09;101337.06;8715694;33;20152;-74
2021/11/06 14:02:12;;;;;;;6.28;3.47;;;;;;;8.63;67.03;101321.91;8716191;33;20684;-74
2021/11/06 14:07:23;;;;;;;5.22;2.83;;;;;;;8.46;67.24;101326.44;8717094;33;20562;-74
2021/11/06 14:12:42;;;;;;;6.43;5.05;;;;;;;8.52;67.40;101315.38;8717767;33;20638;-74
2021/11/06 14:17:52;;;;;;;8.18;4.90;;;;;;;8.54;67.41;101297.41;8681523;33;20241;-74
2021/11/06 14:22:56;;;;;;;7.75;4.75;;;;;;;8.59;66.76;101287.28;8737952;33;20202;-74
2021/11/06 14:28:14;;;;;;;8.68;3.72;;;;;;;8.82;66.85;101277.03;8717765;33;20188;-75
2021/11/06 14:33:33;;;;;;;6.53;3.85;;;;;;;8.76;66.67;101264.84;8716076;33;20289;-74
2021/11/06 14:39:00;;;;;;;6.20;4.43;;;;;;;8.83;66.75;101265.34;8713645;33;20134;-74
2021/11/06 14:44:09;;;;;;;7.00;4.18;;;;;;;8.89;66.55;101250.75;8714199;33;20247;-74
2021/11/06 14:49:13;;;;;;;6.30;2.80;;;;;;;8.40;66.83;101258.00;8712449;33;20179;-74
2021/11/06 14:54:17;;;;;;;6.38;3.67;;;;;;;8.70;66.37;101241.13;8714731;33;20201;-74
2021/11/06 14:59:30;;;;;;;4.47;2.88;;;;;;;8.48;67.12;101243.34;8666675;33;20271;-73
2021/11/06 15:04:41;;;;;;;5.05;3.38;;;;;;;8.55;66.87;101226.81;8714302;33;21595;-74
2021/11/06 15:09:48;;;;;;;6.53;3.40;;;;;;;8.68;66.60;101234.13;8712045;33;20300;-75
2021/11/06 15:14:51;;;;;;;4.72;2.85;;;;;;;8.56;66.62;101219.66;8715115;33;20192;-74
2021/11/06 15:19:54;;;;;;;5.50;3.65;;;;;;;8.32;67.09;101217.44;8715333;33;20191;-74
2021/11/06 15:24:58;;;;;;;4.38;3.40;;;;;;;8.40;66.80;101211.63;8673897;33;20338;-73
2021/11/06 15:30:01;;;;;;;5.70;3.50;;;;;;;8.22;67.54;101196.63;8689169;33;20300;-74
2021/11/06 15:35:05;;;;;;;4.65;2.85;;;;;;;8.56;66.41;101188.38;8735853;33;20187;-75
2021/11/06 15:40:14;;;;;;;2.20;2.00;;;;;;;8.36;66.77;101181.50;8714637;33;20183;-75
2021/11/06 15:45:18;;;;;;;3.22;2.80;;;;;;;8.48;66.73;101176.41;8714142;33;20676;-75
2021/11/06 15:50:22;;;;;;;7.13;3.60;;;;;;;8.49;66.77;101176.28;8714331;33;20156;-75
2021/11/06 15:55:26;;;;;;;4.32;3.30;;;;;;;8.52;66.39;101169.91;8714055;33;20551;-75
2021/11/06 16:00:29;;;;;;;3.63;3.17;;;;;;;8.37;66.85;101169.84;8714100;33;20222;-74
2021/11/06 16:05:33;;;;;;;4.35;3.15;;;;;;;8.32;66.97;101155.84;8714474;33;20180;-73
2021/11/06 16:10:38;;;;;;;5.05;3.67;;;;;;;8.41;67.15;101162.47;8719209;33;20410;-74
2021/11/06 16:15:43;;;;;;;3.53;3.17;;;;;;;8.48;66.88;101166.56;8718489;33;20278;-75
2021/11/06 16:20:50;;;;;;;4.20;3.42;;;;;;;8.39;67.06;101159.00;8718651;33;20187;-76
2021/11/06 16:25:54;;;;;;;4.80;3.38;;;;;;;8.34;67.04;101153.97;8718751;33;20966;-74
2021/11/06 16:30:58;;;;;;;4.25;3.00;;;;;;;8.49;67.03;101146.84;8719192;33;20179;-73
2021/11/06 16:36:04;;;;;;;3.83;3.20;;;;;;;8.51;67.11;101160.16;8718813;33;20680;-74
2021/11/06 16:41:09;;;;;;;4.63;3.40;;;;;;;8.52;66.88;101148.47;8718019;33;20472;-74
2021/11/06 16:46:13;;;;;;;3.92;3.33;;;;;;;8.54;67.00;101136.72;8718746;33;20184;-73
2021/11/06 16:51:17;;;;;;;4.80;3.45;;;;;;;8.43;67.24;101119.56;8718910;33;20148;-74
2021/11/06 16:56:22;;;;;;;4.53;3.30;;;;;;;8.35;67.37;101107.47;8718439;33;20621;-73
2021/11/06 17:01:26;;;;;;;5.00;3.53;;;;;;;8.43;67.36;101103.50;8718494;33;20144;-73
2021/11/06 17:06:32;;;;;;;6.43;3.75;;;;;;;8.29;67.64;101105.19;8719106;33;20314;-74
2021/11/06 17:11:36;;;;;;;4.95;3.90;;;;;;;8.15;68.15;101092.63;8681013;33;20522;-74
2021/11/06 17:16:40;;;;;;;10.25;3.45;;;;;;;8.11;68.23;101096.41;8692247;33;21708;-73
2021/11/06 17:21:43;;;;;;;7.15;3.40;;;;;;;8.24;68.38;101093.88;8717283;33;20313;-73
2021/11/06 17:26:47;;;;;;;5.03;3.33;;;;;;;8.36;68.02;101078.88;8680248;33;20472;-74
2021/11/06 17:31:50;;;;;;;6.22;3.92;;;;;;;8.33;68.03;101079.94;8716752;33;20298;-74
2021/11/06 17:36:54;;;;;;;7.75;3.78;;;;;;;8.26;68.60;101059.88;8716799;33;20213;-73
2021/11/06 17:41:58;;;;;;;5.57;3.80;;;;;;;8.31;68.78;101046.19;8716365;33;20850;-73
2021/11/06 17:47:02;;;;;;;4.38;3.22;;;;;;;8.28;68.85;101055.28;8715743;33;20156;-74
2021/11/06 17:52:10;;;;;;;6.68;3.92;;;;;;;8.58;67.84;101032.94;8738657;33;20448;-72
2021/11/06 17:57:15;;;;;;;5.10;3.42;;;;;;;8.35;68.74;101040.56;8716376;33;20190;-73
2021/11/06 18:02:21;;;;;;;6.28;3.78;;;;;;;8.54;68.58;101028.75;8716634;33;20186;-73
2021/11/06 18:07:24;;;;;;;5.55;3.60;;;;;;;8.34;69.16;101022.78;8716618;33;20186;-73
2021/11/06 18:12:29;;;;;;;5.95;5.03;;;;;;;8.51;69.11;100997.66;8715477;33;20643;-75
2021/11/06 18:17:32;;;;;;;8.75;3.75;;;;;;;8.37;69.49;100984.25;8716276;33;20144;-73
2021/11/06 18:22:36;;;;;;;5.78;3.90;;;;;;;8.03;70.45;100991.66;8716705;33;20238;-73
2021/11/06 18:27:41;;;;;;;5.68;3.70;;;;;;;7.98;71.59;100992.91;8715587;33;20163;-74
2021/11/06 18:32:44;;;;;;;6.53;3.83;;;;;;;8.35;70.71;100984.34;8715015;33;20249;-74
2021/11/06 18:37:47;;;;;;;7.20;4.30;;;;;;;8.24;71.09;100992.19;8715007;33;20300;-73
2021/11/06 18:42:53;;;;;;;3.60;2.80;;;;;;;8.01;71.88;101017.66;8714960;33;20193;-74
2021/11/06 18:47:56;;;;;;;6.63;4.30;;;;;;;8.16;71.70;101008.69;8714876;33;20529;-75
2021/11/06 18:52:59;;;;;;;6.90;4.07;;;;;;;8.01;71.98;100985.56;8714852;33;20243;-74
2021/11/06 18:58:04;;;;;;;5.85;3.33;;;;;;;7.90;72.38;100983.53;8678213;33;20895;-75
2021/11/06 19:03:07;;;;;;;7.22;4.18;;;;;;;8.39;71.39;100951.06;8715324;33;20535;-73
2021/11/06 19:08:11;;;;;;;7.90;4.65;;;;;;;8.28;71.80;100947.31;8736144;33;20294;-74
2021/11/06 19:13:15;;;;;;;6.57;3.78;;;;;;;8.01;72.87;100937.41;8730222;33;20167;-74
2021/11/06 19:18:18;;;;;;;4.65;3.75;;;;;;;8.05;72.67;100932.72;8729296;33;20524;-74
2021/11/06 19:23:23;;;;;;;7.53;5.50;;;;;;;8.15;72.83;100934.72;8715927;33;20231;-74
2021/11/06 19:28:28;;;;;;;10.93;6.18;;;;;;;8.32;72.38;100938.16;8717403;33;20391;-73
2021/11/06 19:33:33;;;;;;;10.23;5.85;;;;;;;8.37;72.65;100917.31;8716615;33;20290;-74
2021/11/06 19:38:36;;;;;;;11.10;6.93;;;;;;;8.25;73.23;100916.25;8715790;33;20691;-74
2021/11/06 19:43:40;;;;;;;13.82;7.65;;;;;;;8.22;73.36;100908.44;8680627;33;20187;-74
2021/11/06 19:48:43;;;;;;;11.02;6.97;;;;;;;8.18;73.98;100905.09;8721410;33;20142;-75
2021/11/06 19:53:46;;;;;;;10.38;6.28;;;;;;;8.12;74.06;100894.78;8719105;33;20166;-74
2021/11/06 19:58:51;;;;;;;11.60;7.05;;;;;;;8.24;73.94;100911.88;8721065;33;20325;-74
2021/11/06 20:03:54;;;;;;;12.63;7.00;;;;;;;8.26;74.60;100918.00;8720391;33;20191;-75
2021/11/06 20:08:58;;;;;;;13.55;7.32;;;;;;;8.07;75.07;100904.91;8719924;33;20148;-75
2021/11/06 20:14:06;;;;;;;7.70;4.78;;;;;;;8.09;75.05;100899.44;8719351;33;20160;-74
2021/11/06 20:19:10;;;;;;;11.65;7.10;;;;;;;8.14;75.35;100908.06;8720082;33;20287;-73
2021/11/06 20:24:13;;;;;;;13.98;8.40;;;;;;;8.16;75.41;100895.44;8718669;33;20233;-74
2021/11/06 20:29:17;;;;;;;13.18;7.68;;;;;;;8.05;75.65;100913.97;8719612;33;20986;-73
2021/11/06 20:34:21;;;;;;;16.95;9.32;;;;;;;8.28;75.11;100881.31;8719123;33;20827;-77
2021/11/06 20:39:24;;;;;;;13.80;6.28;;;;;;;7.89;76.14;100890.00;8719842;33;20193;-74
2021/11/06 20:44:29;;;;;;;6.85;5.32;;;;;;;8.05;75.49;100877.38;8721026;33;21602;-75
2021/11/06 20:49:32;;;;;;;11.75;7.45;;;;;;;8.11;75.45;100860.06;8720191;33;20148;-75
2021/11/06 20:54:36;;;;;;;12.88;7.55;;;;;;;8.16;75.38;100844.59;8719177;33;20191;-75
2021/11/06 20:59:40;;;;;;;11.40;6.47;;;;;;;8.09;75.33;100833.44;8718516;33;20970;-75
2021/11/06 21:04:44;;;;;;;10.63;5.93;;;;;;;8.03;75.40;100815.06;8681658;33;20183;-74
2021/11/06 21:09:56;;;;;;;11.90;6.40;;;;;;;8.04;75.39;100823.97;8718434;33;20931;-73
2021/11/06 21:20:20;;;;;;;9.80;6.63;;;;;;;7.90;75.84;100796.28;8681909;33;21038;-74
2021/11/06 21:25:25;;;;;;;9.75;6.30;;;;;;;8.09;75.13;100812.03;8693264;33;20209;-74
2021/11/06 21:30:29;;;;;;;9.60;6.55;;;;;;;8.08;75.16;100799.59;8719002;33;20523;-76
2021/11/06 21:35:33;;;;;;;9.80;5.28;;;;;;;7.92;75.43;100790.81;8717230;33;20156;-75
2021/11/06 21:40:36;;;;;;;8.27;6.15;;;;;;;8.28;74.18;100792.97;8717274;33;20183;-74
2021/11/06 21:45:41;;;;;;;9.75;5.50;;;;;;;8.09;74.37;100787.94;8679811;33;20129;-74
2021/11/06 21:50:49;;;;;;;5.60;3.72;;;;;;;8.20;73.87;100789.94;8716206;33;20183;-74
2021/11/06 21:55:52;;;;;;;6.38;4.90;;;;;;;8.10;74.35;100776.28;8715942;33;20445;-74
2021/11/06 22:00:57;;;;;;;11.88;6.38;;;;;;;8.14;74.36;100759.03;8718570;33;20222;-75
2021/11/06 22:06:00;;;;;;;7.60;5.95;;;;;;;8.25;73.88;100762.84;8721088;33;20355;-73
2021/11/06 22:11:04;;;;;;;10.60;5.72;;;;;;;7.83;76.96;100765.53;8719122;33;20614;-76
2021/11/06 22:16:10;;;;;;;10.85;6.25;;;;;;;7.68;78.46;100748.66;8717444;33;20172;-75
2021/11/06 22:21:14;;;;;;;9.30;6.78;;;;;;;7.71;79.30;100739.56;8716313;33;20221;-74
2021/11/06 22:26:18;;;;;;;6.00;4.40;;;;;;;7.46;79.65;100722.41;8715221;33;20194;-75
2021/11/06 22:31:22;;;;;;;8.95;6.20;;;;;;;7.73;78.23;100719.81;8690806;33;20144;-74
2021/11/06 22:36:26;;;;;;;10.90;6.45;;;;;;;7.89;77.62;100700.94;8714737;33;20151;-74
2021/11/06 22:41:30;;;;;;;10.48;6.85;;;;;;;7.87;77.58;100692.16;8715574;33;20681;-75
2021/11/06 22:46:35;;;;;;;10.90;6.13;;;;;;;7.72;77.75;100691.31;8715149;33;20187;-75
2021/11/06 22:51:38;;;;;;;9.55;6.05;;;;;;;7.69;77.96;100675.47;8715700;33;20179;-76
2021/11/06 22:56:43;;;;;;;8.30;4.60;;;;;;;7.57;77.80;100672.72;8714754;33;20202;-75
2021/11/06 23:01:48;;;;;;;8.27;5.65;;;;;;;7.65;77.41;100660.59;8713872;33;21353;-76
2021/11/06 23:06:52;;;;;;;8.38;5.22;;;;;;;7.62;77.54;100660.78;8713594;33;20622;-77
2021/11/06 23:11:55;;;;;;;6.75;5.15;;;;;;;7.78;77.00;100649.94;8713733;33;20782;-77
2021/11/06 23:16:59;;;;;;;11.07;5.13;;;;;;;7.82;76.52;100639.94;8689518;33;20458;-75
2021/11/06 23:22:04;;;;;;;9.10;6.35;;;;;;;7.87;76.24;100635.09;8719017;33;20188;-75
2021/11/06 23:27:07;;;;;;;5.53;4.53;;;;;;;7.87;75.96;100627.09;8719253;33;20593;-74
2021/11/06 23:32:11;;;;;;;10.88;5.90;;;;;;;7.84;75.96;100608.56;8719495;33;20224;-75
2021/11/06 23:37:14;;;;;;;8.98;5.30;;;;;;;7.77;76.14;100624.16;8681970;33;20308;-75
2021/11/06 23:42:19;;;;;;;7.43;5.40;;;;;;;7.76;76.22;100589.50;8718215;33;20132;-75
2021/11/06 23:47:23;;;;;;;8.88;5.85;;;;;;;7.87;75.69;100587.84;8717463;33;21410;-76